Time;durP1;ratioP1;P1;durP2;ratioP2;P2;SDS_P1;SDS_P2;PMS_P1;PMS_P2;Temp;Humidity;BMP_temperature;BMP_pressure;BME280_temperature;BME280_humidity;BME280_pressure;Samples;Min_cycle;Max_cycle;Signal;HPM_P1;HPM_P2
2021/09/08 00:04:59;;;;;;;0.10;0.00;;;;;;;;;;10513200;28;20055;-66
2021/09/08 00:10:03;;;;;;;0.00;0.00;;;;;;;;;;10513494;28;20124;-65
2021/09/08 00:15:08;;;;;;;0.00;0.00;;;;;;;;;;10513932;28;20040;-66
2021/09/08 00:20:12;;;;;;;0.00;0.00;;;;;;;;;;10511097;28;20052;-65
2021/09/08 00:25:16;;;;;;;0.00;0.00;;;;;;;;;;10495573;28;20042;-64
2021/09/08 00:30:21;;;;;;;0.00;0.00;;;;;;;;;;10511409;28;20048;-64
2021/09/08 00:35:24;;;;;;;0.00;0.00;;;;;;;;;;10513157;28;20044;-64
2021/09/08 00:40:28;;;;;;;0.00;0.00;;;;;;;;;;10494041;28;20075;-64
2021/09/08 00:45:33;;;;;;;0.00;0.00;;;;;;;;;;10511835;28;20497;-65
2021/09/08 00:50:36;;;;;;;0.00;0.00;;;;;;;;;;10511746;28;20049;-66
2021/09/08 00:55:44;;;;;;;0.00;0.00;;;;;;;;;;10516520;28;20478;-66
2021/09/08 01:00:48;;;;;;;0.00;0.00;;;;;;;;;;10518793;28;20048;-66
2021/09/08 01:05:51;;;;;;;0.05;0.03;;;;;;;;;;10518857;28;20082;-65
2021/09/08 01:10:55;;;;;;;0.00;0.00;;;;;;;;;;10519775;28;20173;-65
2021/09/08 01:16:01;;;;;;;0.00;0.00;;;;;;;;;;10519024;28;20036;-65
2021/09/08 01:21:05;;;;;;;0.00;0.00;;;;;;;;;;10517744;28;20122;-65
2021/09/08 01:26:10;;;;;;;0.00;0.00;;;;;;;;;;10501683;28;20047;-66
2021/09/08 01:31:14;;;;;;;0.00;0.00;;;;;;;;;;10513490;28;20129;-65
2021/09/08 01:36:16;;;;;;;0.00;0.00;;;;;;;;;;10517712;28;20040;-65
2021/09/08 01:41:21;;;;;;;0.22;0.10;;;;;;;;;;10517498;28;20643;-64
2021/09/08 01:46:24;;;;;;;0.00;0.00;;;;;;;;;;10518519;28;20044;-63
2021/09/08 01:51:27;;;;;;;0.00;0.00;;;;;;;;;;10516867;28;20076;-63
2021/09/08 01:56:31;;;;;;;0.00;0.00;;;;;;;;;;10514628;28;20482;-64
2021/09/08 02:01:34;;;;;;;0.00;0.00;;;;;;;;;;10519414;28;20052;-63
2021/09/08 02:06:47;;;;;;;0.00;0.00;;;;;;;;;;10509468;28;20123;-63
2021/09/08 02:11:51;;;;;;;0.00;0.00;;;;;;;;;;10501022;28;20052;-63
2021/09/08 02:16:56;;;;;;;0.00;0.00;;;;;;;;;;10513430;28;20036;-63
2021/09/08 02:21:58;;;;;;;0.13;0.00;;;;;;;;;;10517503;28;20052;-63
2021/09/08 02:27:03;;;;;;;0.20;0.00;;;;;;;;;;10513577;28;20044;-63
2021/09/08 02:32:06;;;;;;;0.00;0.00;;;;;;;;;;10513356;28;20054;-63
2021/09/08 02:37:09;;;;;;;0.00;0.00;;;;;;;;;;10497789;28;20044;-63
2021/09/08 02:42:13;;;;;;;0.05;0.00;;;;;;;;;;10509614;28;20048;-63
2021/09/08 02:47:16;;;;;;;0.00;0.00;;;;;;;;;;10512764;28;20414;-63
2021/09/08 02:52:18;;;;;;;0.00;0.00;;;;;;;;;;10513638;28;20044;-63
2021/09/08 02:57:23;;;;;;;0.10;0.10;;;;;;;;;;10510696;28;20071;-63
2021/09/08 03:02:26;;;;;;;0.00;0.00;;;;;;;;;;10518063;28;20050;-63
2021/09/08 03:07:29;;;;;;;0.00;0.00;;;;;;;;;;10490051;28;20047;-63
2021/09/08 03:12:34;;;;;;;0.05;0.05;;;;;;;;;;10512759;28;20482;-63
2021/09/08 03:17:37;;;;;;;0.00;0.00;;;;;;;;;;10510552;28;20097;-63
2021/09/08 03:22:39;;;;;;;0.00;0.00;;;;;;;;;;10514092;28;20418;-63
2021/09/08 03:27:44;;;;;;;0.00;0.00;;;;;;;;;;10510566;28;20537;-62
2021/09/08 03:32:46;;;;;;;0.00;0.00;;;;;;;;;;10513380;28;20807;-62
2021/09/08 03:37:49;;;;;;;0.00;0.00;;;;;;;;;;10509895;28;20062;-63
2021/09/08 03:42:54;;;;;;;0.00;0.00;;;;;;;;;;10512705;28;20051;-63
2021/09/08 03:47:57;;;;;;;0.20;0.00;;;;;;;;;;10511868;28;20665;-62
2021/09/08 03:53:00;;;;;;;0.00;0.00;;;;;;;;;;10513916;28;20371;-63
2021/09/08 03:58:05;;;;;;;0.00;0.00;;;;;;;;;;10497955;28;20501;-62
2021/09/08 04:03:07;;;;;;;0.00;0.00;;;;;;;;;;10528446;28;20505;-62
2021/09/08 04:08:12;;;;;;;0.03;0.03;;;;;;;;;;10511773;28;20184;-62
2021/09/08 04:13:17;;;;;;;0.00;0.00;;;;;;;;;;10507866;28;20048;-62
2021/09/08 04:18:19;;;;;;;0.00;0.00;;;;;;;;;;10512307;28;20131;-62
2021/09/08 04:23:23;;;;;;;0.00;0.00;;;;;;;;;;10514455;28;20036;-62
2021/09/08 04:28:27;;;;;;;0.00;0.00;;;;;;;;;;10512313;28;20032;-61
2021/09/08 04:33:29;;;;;;;0.00;0.00;;;;;;;;;;10518976;28;20040;-63
2021/09/08 04:38:32;;;;;;;0.32;0.00;;;;;;;;;;10504246;28;20036;-64
2021/09/08 04:43:36;;;;;;;0.00;0.00;;;;;;;;;;10503198;28;20132;-63
2021/09/08 04:48:39;;;;;;;0.00;0.00;;;;;;;;;;10499309;28;20046;-63
2021/09/08 04:53:42;;;;;;;0.00;0.00;;;;;;;;;;10520006;28;20180;-63
2021/09/08 04:58:46;;;;;;;0.00;0.00;;;;;;;;;;10501033;28;20655;-63
2021/09/08 05:03:49;;;;;;;0.00;0.00;;;;;;;;;;10520560;28;20047;-63
2021/09/08 05:08:52;;;;;;;0.00;0.00;;;;;;;;;;10503433;28;20051;-63
2021/09/08 05:13:56;;;;;;;0.00;0.00;;;;;;;;;;10517259;28;20054;-64
2021/09/08 05:18:59;;;;;;;0.00;0.00;;;;;;;;;;10517921;28;20044;-64
2021/09/08 05:24:01;;;;;;;0.00;0.00;;;;;;;;;;10521570;28;20067;-64
2021/09/08 05:29:06;;;;;;;0.00;0.00;;;;;;;;;;10517277;28;20047;-65
2021/09/08 05:34:09;;;;;;;0.10;0.10;;;;;;;;;;10517039;28;20131;-63
2021/09/08 05:39:11;;;;;;;0.00;0.00;;;;;;;;;;10515318;28;20056;-64
2021/09/08 05:44:16;;;;;;;0.00;0.00;;;;;;;;;;10516869;28;20491;-64
2021/09/08 05:49:18;;;;;;;0.00;0.00;;;;;;;;;;10505949;28;20593;-64
2021/09/08 05:54:21;;;;;;;0.00;0.00;;;;;;;;;;10516473;28;20051;-64
2021/09/08 05:59:25;;;;;;;0.00;0.00;;;;;;;;;;10515849;28;20054;-63
2021/09/08 06:04:28;;;;;;;0.08;0.08;;;;;;;;;;10516389;28;20056;-63
2021/09/08 06:09:31;;;;;;;0.00;0.00;;;;;;;;;;10514073;28;20044;-63
2021/09/08 06:14:35;;;;;;;0.00;0.00;;;;;;;;;;10515576;28;20101;-62
2021/09/08 06:19:38;;;;;;;0.00;0.00;;;;;;;;;;10513653;28;20048;-63
2021/09/08 06:24:41;;;;;;;0.40;0.10;;;;;;;;;;10515464;28;20470;-63
2021/09/08 06:29:45;;;;;;;0.00;0.00;;;;;;;;;;10514461;28;20051;-63
2021/09/08 06:34:49;;;;;;;0.00;0.00;;;;;;;;;;10514090;28;20051;-63
2021/09/08 06:39:51;;;;;;;0.00;0.00;;;;;;;;;;10513056;28;20068;-63
2021/09/08 06:44:55;;;;;;;0.00;0.00;;;;;;;;;;10512661;28;20048;-64
2021/09/08 06:50:04;;;;;;;0.00;0.00;;;;;;;;;;10513482;28;20906;-63
2021/09/08 06:55:07;;;;;;;0.00;0.00;;;;;;;;;;10512585;28;20603;-63
2021/09/08 07:00:13;;;;;;;0.00;0.00;;;;;;;;;;10516148;28;20043;-62
2021/09/08 07:05:17;;;;;;;0.13;0.10;;;;;;;;;;10497221;28;20051;-63
2021/09/08 07:10:20;;;;;;;0.00;0.00;;;;;;;;;;10511408;28;20040;-62
2021/09/08 07:15:24;;;;;;;0.00;0.00;;;;;;;;;;10512965;28;20399;-63
2021/09/08 07:20:27;;;;;;;0.00;0.00;;;;;;;;;;10515644;28;20038;-63
2021/09/08 07:25:30;;;;;;;0.00;0.00;;;;;;;;;;10508830;28;20567;-63
2021/09/08 07:30:35;;;;;;;0.00;0.00;;;;;;;;;;10511155;28;20032;-63
2021/09/08 07:35:37;;;;;;;0.00;0.00;;;;;;;;;;10510149;28;20553;-63
2021/09/08 07:40:40;;;;;;;0.00;0.00;;;;;;;;;;10490348;28;20164;-63
2021/09/08 07:45:45;;;;;;;0.00;0.00;;;;;;;;;;10514565;28;20048;-63
2021/09/08 07:50:48;;;;;;;0.00;0.00;;;;;;;;;;10511525;28;20113;-63
2021/09/08 07:55:51;;;;;;;0.00;0.00;;;;;;;;;;10492079;28;20102;-63
2021/09/08 08:00:57;;;;;;;0.00;0.00;;;;;;;;;;10511964;28;20364;-63
2021/09/08 08:06:00;;;;;;;0.00;0.00;;;;;;;;;;10498571;28;20500;-63
2021/09/08 08:11:03;;;;;;;0.00;0.00;;;;;;;;;;10494609;28;20048;-63
2021/09/08 08:16:07;;;;;;;0.00;0.00;;;;;;;;;;10512508;28;20046;-63
2021/09/08 08:21:10;;;;;;;0.00;0.00;;;;;;;;;;10512947;28;20086;-63
2021/09/08 08:26:12;;;;;;;0.05;0.00;;;;;;;;;;10493649;28;20386;-63
2021/09/08 08:31:18;;;;;;;0.00;0.00;;;;;;;;;;10507978;28;20127;-63
2021/09/08 08:36:21;;;;;;;0.00;0.00;;;;;;;;;;10509691;28;20044;-63
2021/09/08 08:41:24;;;;;;;0.00;0.00;;;;;;;;;;10508964;28;20494;-63
2021/09/08 08:46:28;;;;;;;0.00;0.00;;;;;;;;;;10506232;28;20373;-63
2021/09/08 08:51:31;;;;;;;0.00;0.00;;;;;;;;;;10510939;28;20084;-63
2021/09/08 08:56:34;;;;;;;0.00;0.00;;;;;;;;;;10492597;28;20052;-63
2021/09/08 09:01:40;;;;;;;0.00;0.00;;;;;;;;;;10510771;28;20050;-63
2021/09/08 09:06:44;;;;;;;0.00;0.00;;;;;;;;;;10509033;28;20048;-63
2021/09/08 09:11:48;;;;;;;0.10;0.00;;;;;;;;;;10493108;28;20054;-63
2021/09/08 09:16:55;;;;;;;0.00;0.00;;;;;;;;;;10513874;28;20035;-63
2021/09/08 09:21:58;;;;;;;0.00;0.00;;;;;;;;;;10517877;28;20043;-64
2021/09/08 09:27:02;;;;;;;0.08;0.00;;;;;;;;;;10514770;28;20055;-63
2021/09/08 09:32:08;;;;;;;0.00;0.00;;;;;;;;;;10514373;28;20063;-63
2021/09/08 09:37:11;;;;;;;0.00;0.00;;;;;;;;;;10535847;27;20509;-63
2021/09/08 09:42:15;;;;;;;0.00;0.00;;;;;;;;;;10516854;28;20054;-63
2021/09/08 09:47:20;;;;;;;0.00;0.00;;;;;;;;;;10505854;28;20052;-63
2021/09/08 09:52:23;;;;;;;0.00;0.00;;;;;;;;;;10516968;28;20043;-63
2021/09/08 09:57:26;;;;;;;0.00;0.00;;;;;;;;;;10495998;28;20079;-63
2021/09/08 10:02:30;;;;;;;0.00;0.00;;;;;;;;;;10515675;28;20044;-64
2021/09/08 10:07:34;;;;;;;0.00;0.00;;;;;;;;;;10512317;28;20048;-63
2021/09/08 10:12:40;;;;;;;0.00;0.00;;;;;;;;;;10514626;28;20416;-64
2021/09/08 10:17:45;;;;;;;0.00;0.00;;;;;;;;;;10498990;28;20433;-64
2021/09/08 10:22:48;;;;;;;0.00;0.00;;;;;;;;;;10516283;28;20032;-64
2021/09/08 10:27:53;;;;;;;0.00;0.00;;;;;;;;;;10512143;28;20463;-64
2021/09/08 10:33:14;;;;;;;0.00;0.00;;;;;;;;;;10513955;28;20040;-64
2021/09/08 10:38:18;;;;;;;0.00;0.00;;;;;;;;;;10512096;28;20050;-64
2021/09/08 10:43:27;;;;;;;0.00;0.00;;;;;;;;;;10513901;28;20054;-64
2021/09/08 10:48:42;;;;;;;0.00;0.00;;;;;;;;;;10511427;28;20052;-63
2021/09/08 10:54:00;;;;;;;0.00;0.00;;;;;;;;;;10511270;28;20524;-64
2021/09/08 10:59:03;;;;;;;0.00;0.00;;;;;;;;;;10512687;28;20460;-64
2021/09/08 11:04:12;;;;;;;0.00;0.00;;;;;;;;;;10516163;28;20048;-64
2021/09/08 11:09:15;;;;;;;0.00;0.00;;;;;;;;;;10506358;28;20043;-64
2021/09/08 11:14:18;;;;;;;0.00;0.00;;;;;;;;;;10512873;28;20472;-64
2021/09/08 11:19:22;;;;;;;0.00;0.00;;;;;;;;;;10511650;28;20044;-64
2021/09/08 11:24:28;;;;;;;0.00;0.00;;;;;;;;;;10515780;28;20066;-64
2021/09/08 11:29:31;;;;;;;0.00;0.00;;;;;;;;;;10511732;28;20062;-64
2021/09/08 11:34:36;;;;;;;0.00;0.00;;;;;;;;;;10512738;28;20052;-64
2021/09/08 11:39:38;;;;;;;0.00;0.00;;;;;;;;;;10508281;28;20055;-64
2021/09/08 11:44:41;;;;;;;0.00;0.00;;;;;;;;;;10511038;28;20044;-64
2021/09/08 11:49:45;;;;;;;0.00;0.00;;;;;;;;;;10508805;28;20044;-64
2021/09/08 11:54:48;;;;;;;0.00;0.00;;;;;;;;;;10512245;28;20051;-64
2021/09/08 11:59:52;;;;;;;0.05;0.00;;;;;;;;;;10505459;28;20488;-64
2021/09/08 12:04:56;;;;;;;0.00;0.00;;;;;;;;;;10508395;28;20479;-64
2021/09/08 12:09:59;;;;;;;0.00;0.00;;;;;;;;;;10510632;28;20093;-64
2021/09/08 12:15:01;;;;;;;0.00;0.00;;;;;;;;;;10508981;28;20048;-64
2021/09/08 12:20:22;;;;;;;0.08;0.00;;;;;;;;;;10511564;28;20472;-64
2021/09/08 12:25:25;;;;;;;0.00;0.00;;;;;;;;;;10510733;28;20044;-64
2021/09/08 12:30:28;;;;;;;0.00;0.00;;;;;;;;;;10492691;28;20127;-63
2021/09/08 12:35:43;;;;;;;0.00;0.00;;;;;;;;;;10508680;28;20192;-63
2021/09/08 12:41:01;;;;;;;0.00;0.00;;;;;;;;;;10510398;28;20406;-63
2021/09/08 12:46:04;;;;;;;0.00;0.00;;;;;;;;;;10506265;28;20044;-63
2021/09/08 12:51:09;;;;;;;0.00;0.00;;;;;;;;;;10513206;28;20043;-64
2021/09/08 12:56:12;;;;;;;0.00;0.00;;;;;;;;;;10517589;28;20048;-64
2021/09/08 13:01:15;;;;;;;0.00;0.00;;;;;;;;;;10516377;28;20040;-63
2021/09/08 13:06:20;;;;;;;0.00;0.00;;;;;;;;;;10518231;28;20498;-63
2021/09/08 13:11:22;;;;;;;0.03;0.00;;;;;;;;;;10516195;28;20044;-63
2021/09/08 13:16:25;;;;;;;0.00;0.00;;;;;;;;;;10512518;28;20055;-64
2021/09/08 13:21:32;;;;;;;0.00;0.00;;;;;;;;;;10521419;28;20166;-64
2021/09/08 13:26:36;;;;;;;0.00;0.00;;;;;;;;;;10515775;28;20048;-64
2021/09/08 13:31:39;;;;;;;0.00;0.00;;;;;;;;;;10516539;28;20559;-64
2021/09/08 13:36:44;;;;;;;0.00;0.00;;;;;;;;;;10516264;28;20044;-64
2021/09/08 13:41:47;;;;;;;0.00;0.00;;;;;;;;;;10515820;28;20055;-64
2021/09/08 13:46:50;;;;;;;0.00;0.00;;;;;;;;;;10515125;28;20048;-64
2021/09/08 13:51:54;;;;;;;0.00;0.00;;;;;;;;;;10510911;28;20054;-64
2021/09/08 13:56:59;;;;;;;0.08;0.00;;;;;;;;;;10515100;28;20044;-64
2021/09/08 14:02:01;;;;;;;0.00;0.00;;;;;;;;;;10514438;28;20866;-64
2021/09/08 14:07:27;;;;;;;0.00;0.00;;;;;;;;;;10512433;28;20090;-64
2021/09/08 14:12:30;;;;;;;0.20;0.00;;;;;;;;;;10512333;28;20040;-64
2021/09/08 14:17:33;;;;;;;0.00;0.00;;;;;;;;;;10515136;28;20044;-64
2021/09/08 14:22:37;;;;;;;0.00;0.00;;;;;;;;;;10513391;28;20055;-64
2021/09/08 14:27:40;;;;;;;0.00;0.00;;;;;;;;;;10513716;28;20044;-66
2021/09/08 14:32:43;;;;;;;0.00;0.00;;;;;;;;;;10515886;28;20040;-66
2021/09/08 14:37:47;;;;;;;0.00;0.00;;;;;;;;;;10501651;28;20047;-66
2021/09/08 14:42:55;;;;;;;0.00;0.00;;;;;;;;;;10514078;28;20050;-66
2021/09/08 14:47:59;;;;;;;0.00;0.00;;;;;;;;;;10511989;28;20036;-70
2021/09/08 14:53:04;;;;;;;0.00;0.00;;;;;;;;;;10514215;28;20127;-67
2021/09/08 14:58:06;;;;;;;0.00;0.00;;;;;;;;;;10500294;28;20062;-65
2021/09/08 15:03:09;;;;;;;0.00;0.00;;;;;;;;;;10515618;28;20032;-69
2021/09/08 15:08:18;;;;;;;0.00;0.00;;;;;;;;;;10518354;28;20048;-72
2021/09/08 15:13:21;;;;;;;0.03;0.00;;;;;;;;;;10500894;28;20097;-67
2021/09/08 15:18:24;;;;;;;0.00;0.00;;;;;;;;;;10494853;28;20044;-66
2021/09/08 15:23:32;;;;;;;0.00;0.00;;;;;;;;;;10510114;28;20148;-67
2021/09/08 15:28:41;;;;;;;0.00;0.00;;;;;;;;;;10508023;28;20247;-67
2021/09/08 15:33:45;;;;;;;0.00;0.00;;;;;;;;;;10513472;28;20040;-72
2021/09/08 15:38:49;;;;;;;0.00;0.00;;;;;;;;;;10499183;28;20051;-68
2021/09/08 15:43:52;;;;;;;0.00;0.00;;;;;;;;;;10514593;28;20368;-65
2021/09/08 15:48:56;;;;;;;0.00;0.00;;;;;;;;;;10511808;28;20471;-78
2021/09/08 15:54:00;;;;;;;0.00;0.00;;;;;;;;;;10499708;28;20125;-68
2021/09/08 15:59:03;;;;;;;0.15;0.00;;;;;;;;;;10510149;28;20054;-66
2021/09/08 16:04:06;;;;;;;0.00;0.00;;;;;;;;;;10512998;28;20775;-70
2021/09/08 16:09:10;;;;;;;0.00;0.00;;;;;;;;;;10512557;28;20052;-66
2021/09/08 16:14:17;;;;;;;0.00;0.00;;;;;;;;;;10512256;28;20042;-66
2021/09/08 16:19:20;;;;;;;0.10;0.00;;;;;;;;;;10513647;28;20048;-67
2021/09/08 16:24:24;;;;;;;0.00;0.00;;;;;;;;;;10502129;28;20041;-67
2021/09/08 16:29:27;;;;;;;0.00;0.00;;;;;;;;;;10519380;28;20146;-67
2021/09/08 16:34:30;;;;;;;0.00;0.00;;;;;;;;;;10520437;28;20116;-68
2021/09/08 16:39:34;;;;;;;0.00;0.00;;;;;;;;;;10517683;28;20546;-67
2021/09/08 16:44:37;;;;;;;0.00;0.00;;;;;;;;;;10519362;28;20040;-68
2021/09/08 16:49:41;;;;;;;0.00;0.00;;;;;;;;;;10514841;28;20114;-69
2021/09/08 16:54:45;;;;;;;0.00;0.00;;;;;;;;;;10516906;28;20055;-69
2021/09/08 16:59:48;;;;;;;0.00;0.00;;;;;;;;;;10498531;28;20052;-66
2021/09/08 17:04:51;;;;;;;0.00;0.00;;;;;;;;;;10514099;28;20047;-66
2021/09/08 17:09:55;;;;;;;0.00;0.00;;;;;;;;;;10516653;28;20059;-68
2021/09/08 17:14:58;;;;;;;0.03;0.00;;;;;;;;;;10496039;28;20131;-66
2021/09/08 17:20:01;;;;;;;0.00;0.00;;;;;;;;;;10518784;28;20505;-69
2021/09/08 17:25:06;;;;;;;0.00;0.00;;;;;;;;;;10499730;28;20055;-72
2021/09/08 17:30:11;;;;;;;0.00;0.00;;;;;;;;;;10517125;28;20040;-68
2021/09/08 17:35:14;;;;;;;0.15;0.00;;;;;;;;;;10514156;28;20036;-66
2021/09/08 17:40:21;;;;;;;0.28;0.00;;;;;;;;;;10516571;28;20059;-76
2021/09/08 17:45:25;;;;;;;0.00;0.00;;;;;;;;;;10517499;28;20066;-69
2021/09/08 17:50:29;;;;;;;0.00;0.00;;;;;;;;;;10532087;28;20051;-72
2021/09/08 17:55:34;;;;;;;0.40;0.00;;;;;;;;;;10515793;28;20056;-69
2021/09/08 18:00:39;;;;;;;0.08;0.00;;;;;;;;;;10514295;28;20056;-69
2021/09/08 18:05:43;;;;;;;0.00;0.00;;;;;;;;;;10494016;28;20059;-67
2021/09/08 18:10:48;;;;;;;0.00;0.00;;;;;;;;;;10513525;28;20039;-66
2021/09/08 18:15:52;;;;;;;0.00;0.00;;;;;;;;;;10512462;28;20373;-67
2021/09/08 18:20:56;;;;;;;0.05;0.00;;;;;;;;;;10517427;28;20497;-63
2021/09/08 18:26:01;;;;;;;0.00;0.00;;;;;;;;;;10511710;28;20044;-65
2021/09/08 18:31:04;;;;;;;0.00;0.00;;;;;;;;;;10514105;28;20127;-66
2021/09/08 18:36:07;;;;;;;0.00;0.00;;;;;;;;;;10512363;28;20486;-67
2021/09/08 18:41:12;;;;;;;0.00;0.00;;;;;;;;;;10511712;28;20138;-67
2021/09/08 18:46:15;;;;;;;0.00;0.00;;;;;;;;;;10513001;28;20055;-66
2021/09/08 18:51:22;;;;;;;0.20;0.00;;;;;;;;;;10510166;28;20039;-65
2021/09/08 18:56:26;;;;;;;0.00;0.00;;;;;;;;;;10518100;28;20611;-66
2021/09/08 19:01:29;;;;;;;0.00;0.00;;;;;;;;;;10514641;28;20048;-64
2021/09/08 19:06:33;;;;;;;0.00;0.00;;;;;;;;;;10498336;28;20055;-65
2021/09/08 19:11:38;;;;;;;0.00;0.00;;;;;;;;;;10510922;28;20044;-66
2021/09/08 19:16:42;;;;;;;0.00;0.00;;;;;;;;;;10508684;28;20124;-65
2021/09/08 19:21:47;;;;;;;0.00;0.00;;;;;;;;;;10509153;28;20229;-65
2021/09/08 19:26:52;;;;;;;0.00;0.00;;;;;;;;;;10506000;28;20398;-64
2021/09/08 19:31:55;;;;;;;0.00;0.00;;;;;;;;;;10492683;28;20039;-65
2021/09/08 19:36:57;;;;;;;0.20;0.10;;;;;;;;;;10508280;28;20410;-65
2021/09/08 19:42:02;;;;;;;0.00;0.00;;;;;;;;;;10509737;28;20062;-65
2021/09/08 19:47:05;;;;;;;0.00;0.00;;;;;;;;;;10511101;28;20127;-65
2021/09/08 19:52:08;;;;;;;0.00;0.00;;;;;;;;;;10512291;28;20040;-65
2021/09/08 19:57:12;;;;;;;0.00;0.00;;;;;;;;;;10512230;28;20051;-65
2021/09/08 20:02:16;;;;;;;0.00;0.00;;;;;;;;;;10492478;28;20043;-65
2021/09/08 20:07:21;;;;;;;0.00;0.00;;;;;;;;;;10512286;28;20048;-64
2021/09/08 20:12:26;;;;;;;0.00;0.00;;;;;;;;;;10511154;28;20114;-65
2021/09/08 20:17:28;;;;;;;0.00;0.00;;;;;;;;;;10511729;28;20115;-65
2021/09/08 20:22:31;;;;;;;0.00;0.00;;;;;;;;;;10528783;28;20040;-65
2021/09/08 20:27:35;;;;;;;0.00;0.00;;;;;;;;;;10514418;28;20071;-65
2021/09/08 20:32:38;;;;;;;0.00;0.00;;;;;;;;;;10491215;28;20058;-66
2021/09/08 20:37:41;;;;;;;0.00;0.00;;;;;;;;;;10513345;28;20040;-65
2021/09/08 20:42:45;;;;;;;0.00;0.00;;;;;;;;;;10511201;28;20045;-63
2021/09/08 20:47:48;;;;;;;0.00;0.00;;;;;;;;;;10510890;28;20040;-65
2021/09/08 20:52:51;;;;;;;0.00;0.00;;;;;;;;;;10512136;28;20044;-64
2021/09/08 20:57:55;;;;;;;0.00;0.00;;;;;;;;;;10513205;28;20076;-65
2021/09/08 21:02:59;;;;;;;0.00;0.00;;;;;;;;;;10514521;28;20042;-65
2021/09/08 21:08:03;;;;;;;0.00;0.00;;;;;;;;;;10528366;28;20055;-65
2021/09/08 21:13:07;;;;;;;0.00;0.00;;;;;;;;;;10517470;28;20044;-65
2021/09/08 21:18:10;;;;;;;0.00;0.00;;;;;;;;;;10501787;28;20157;-65
2021/09/08 21:23:13;;;;;;;0.00;0.00;;;;;;;;;;10499909;28;20485;-65
2021/09/08 21:28:17;;;;;;;0.00;0.00;;;;;;;;;;10519109;28;20419;-65
2021/09/08 21:33:20;;;;;;;0.00;0.00;;;;;;;;;;10518247;28;20044;-65
2021/09/08 21:38:23;;;;;;;0.00;0.00;;;;;;;;;;10506610;28;20832;-66
2021/09/08 21:43:27;;;;;;;0.00;0.00;;;;;;;;;;10517474;28;20047;-65
2021/09/08 21:48:30;;;;;;;0.00;0.00;;;;;;;;;;10518589;27;20056;-65
2021/09/08 21:53:32;;;;;;;0.00;0.00;;;;;;;;;;10501312;28;20044;-65
2021/09/08 21:58:36;;;;;;;0.00;0.00;;;;;;;;;;10518445;28;20157;-65
2021/09/08 22:03:39;;;;;;;0.00;0.00;;;;;;;;;;10515932;28;20050;-65
2021/09/08 22:08:42;;;;;;;0.10;0.00;;;;;;;;;;10515832;28;20114;-65
2021/09/08 22:13:46;;;;;;;0.03;0.03;;;;;;;;;;10500236;28;20127;-66
2021/09/08 22:18:49;;;;;;;0.00;0.00;;;;;;;;;;10516750;28;20054;-65
2021/09/08 22:23:52;;;;;;;0.00;0.00;;;;;;;;;;10497964;28;20046;-66
2021/09/08 22:28:56;;;;;;;0.00;0.00;;;;;;;;;;10500245;28;20052;-65
2021/09/08 22:33:59;;;;;;;0.08;0.00;;;;;;;;;;10516072;28;20123;-65
2021/09/08 22:39:02;;;;;;;0.00;0.00;;;;;;;;;;10498537;28;20064;-66
2021/09/08 22:44:06;;;;;;;0.00;0.00;;;;;;;;;;10514446;28;20050;-65
2021/09/08 22:49:09;;;;;;;0.00;0.00;;;;;;;;;;10512207;28;20040;-65
2021/09/08 22:54:11;;;;;;;0.00;0.00;;;;;;;;;;10506189;28;20113;-66
2021/09/08 22:59:15;;;;;;;0.20;0.10;;;;;;;;;;10498362;28;20044;-65
2021/09/08 23:04:21;;;;;;;0.00;0.00;;;;;;;;;;10518064;28;20089;-65
2021/09/08 23:09:25;;;;;;;0.00;0.00;;;;;;;;;;10506961;28;20059;-65
2021/09/08 23:14:29;;;;;;;0.00;0.00;;;;;;;;;;10512049;28;20043;-65
2021/09/08 23:19:32;;;;;;;0.10;0.00;;;;;;;;;;10514066;28;20044;-65
2021/09/08 23:24:35;;;;;;;0.05;0.05;;;;;;;;;;10515030;28;20047;-65
2021/09/08 23:29:40;;;;;;;0.00;0.00;;;;;;;;;;10510133;28;20048;-65
2021/09/08 23:34:44;;;;;;;0.00;0.00;;;;;;;;;;10514259;28;20075;-65
2021/09/08 23:39:46;;;;;;;0.00;0.00;;;;;;;;;;10500592;28;20141;-65
2021/09/08 23:44:51;;;;;;;0.00;0.00;;;;;;;;;;10513047;28;20040;-66
2021/09/08 23:49:54;;;;;;;0.00;0.00;;;;;;;;;;10511536;28;20056;-65
2021/09/08 23:54:58;;;;;;;0.00;0.00;;;;;;;;;;10496409;28;20166;-65
